createdAt,value
2019-02-05T00:01:17.233Z,29.33
2019-02-05T00:03:45.856Z,29.23
2019-02-05T00:06:15.019Z,28.63
2019-02-05T00:08:43.706Z,29.93
2019-02-05T00:11:12.422Z,31.60
2019-02-05T00:13:41.382Z,30.57
2019-02-05T00:16:13.348Z,31.17
2019-02-05T00:18:42.597Z,31.53
2019-02-05T00:21:11.263Z,29.20
2019-02-05T00:23:48.117Z,30.07
2019-02-05T00:26:17.750Z,31.90
2019-02-05T00:28:50.947Z,30.90
2019-02-05T00:31:29.043Z,30.57
2019-02-05T00:34:11.029Z,32.27
2019-02-05T00:36:39.985Z,32.40
2019-02-05T00:39:08.910Z,30.13
2019-02-05T00:41:46.452Z,30.30
2019-02-05T00:44:15.562Z,32.27
2019-02-05T00:46:44.103Z,33.20
2019-02-05T00:49:12.695Z,32.47
2019-02-05T00:51:44.456Z,32.87
2019-02-05T00:54:13.996Z,32.83
2019-02-05T00:56:43.158Z,32.37
2019-02-05T00:59:12.658Z,33.50
2019-02-05T01:01:41.750Z,32.27
2019-02-05T01:04:15.277Z,33.70
2019-02-05T01:06:47.112Z,31.20
2019-02-05T01:09:16.101Z,32.53
2019-02-05T01:11:45.383Z,31.43
2019-02-05T01:14:14.233Z,33.93
2019-02-05T01:16:43.018Z,31.97
2019-02-05T01:19:12.037Z,32.50
2019-02-05T01:21:41.091Z,33.27
2019-02-05T01:24:10.270Z,33.57
2019-02-05T01:26:43.421Z,32.47
2019-02-05T01:29:12.530Z,31.07
2019-02-05T01:31:42.842Z,33.27
2019-02-05T01:34:11.843Z,32.73
2019-02-05T01:36:43.639Z,31.50
2019-02-05T01:39:12.915Z,31.87
2019-02-05T01:41:41.984Z,33.00
2019-02-05T01:44:10.820Z,32.03
2019-02-05T01:46:42.089Z,30.30
2019-02-05T01:49:11.164Z,31.77
2019-02-05T01:51:40.075Z,32.33
2019-02-05T01:54:11.643Z,32.97
2019-02-05T01:56:43.990Z,32.03
2019-02-05T01:59:13.269Z,31.67
2019-02-05T02:01:44.732Z,32.37
2019-02-05T02:04:13.813Z,31.43
2019-02-05T02:06:42.842Z,32.23
2019-02-05T02:09:11.937Z,31.07
2019-02-05T02:11:41.053Z,32.03
2019-02-05T02:14:10.281Z,32.80
2019-02-05T02:16:42.062Z,32.40
2019-02-05T02:19:11.890Z,30.77
2019-02-05T02:21:40.663Z,32.10
2019-02-05T02:24:09.490Z,33.20
2019-02-05T02:26:38.688Z,31.73
2019-02-05T02:29:09.703Z,31.30
2019-02-05T02:31:43.296Z,32.93
2019-02-05T02:34:17.223Z,31.97
2019-02-05T02:36:47.781Z,32.63
2019-02-05T02:39:19.658Z,30.87
2019-02-05T02:41:49.142Z,31.77
2019-02-05T02:44:18.339Z,34.43
2019-02-05T02:46:53.463Z,33.73
2019-02-05T02:49:23.494Z,34.40
2019-02-05T02:52:01.085Z,33.50
2019-02-05T02:54:31.673Z,34.70
2019-02-05T02:57:04.867Z,33.50
2019-02-05T02:59:36.126Z,35.67
2019-02-05T03:02:05.386Z,34.43
2019-02-05T03:04:39.183Z,34.67
2019-02-05T03:07:12.272Z,36.67
2019-02-05T03:09:43.353Z,35.17
2019-02-05T03:12:12.449Z,37.00
2019-02-05T03:14:41.977Z,38.00
2019-02-05T03:17:11.240Z,36.60
2019-02-05T03:19:43.722Z,37.50
2019-02-05T03:22:15.441Z,38.70
2019-02-05T03:24:46.006Z,39.43
2019-02-05T03:27:19.855Z,38.17
2019-02-05T03:29:54.280Z,42.43
2019-02-05T03:32:23.719Z,41.33
2019-02-05T03:34:52.885Z,38.03
2019-02-05T03:37:22.144Z,41.00
2019-02-05T03:39:53.161Z,41.23
2019-02-05T03:42:22.831Z,41.87
2019-02-05T03:44:52.065Z,41.53
2019-02-05T03:47:21.835Z,43.03
2019-02-05T03:49:50.988Z,41.50
2019-02-05T03:52:21.838Z,42.87
2019-02-05T03:55:08.542Z,43.30
2019-02-05T03:57:53.636Z,41.83
2019-02-05T04:01:02.576Z,44.33
2019-02-05T04:04:02.963Z,42.07
2019-02-05T04:06:55.216Z,42.50
2019-02-05T04:10:01.692Z,41.77
2019-02-05T04:12:35.381Z,41.23
2019-02-05T04:15:07.810Z,42.60
2019-02-05T04:18:07.644Z,42.50
2019-02-05T04:20:55.200Z,42.50
2019-02-05T04:23:43.864Z,43.67
2019-02-05T04:26:34.092Z,45.63
2019-02-05T04:29:36.849Z,44.57
2019-02-05T04:32:26.004Z,45.83
2019-02-05T04:35:14.754Z,44.40
2019-02-05T04:38:06.174Z,47.03
2019-02-05T04:40:41.956Z,45.97
2019-02-05T04:43:34.810Z,46.97
2019-02-05T04:46:08.648Z,46.47
2019-02-05T04:48:59.566Z,47.90
2019-02-05T04:51:47.433Z,47.33
2019-02-05T04:54:32.973Z,46.43
2019-02-05T04:57:13.769Z,47.20
2019-02-05T05:00:05.152Z,47.93
2019-02-05T05:02:51.903Z,49.13
2019-02-05T05:05:28.676Z,48.00
2019-02-05T05:08:25.623Z,48.53
2019-02-05T05:10:54.752Z,48.30
2019-02-05T05:13:23.870Z,49.73
2019-02-05T05:15:58.321Z,46.20
2019-02-05T05:18:30.097Z,47.97
2019-02-05T05:21:00.340Z,48.83
2019-02-05T05:23:29.401Z,49.33
2019-02-05T05:26:01.460Z,46.03
2019-02-05T05:28:30.610Z,48.10
2019-02-05T05:30:59.652Z,48.33
2019-02-05T05:33:28.870Z,48.47
2019-02-05T05:35:57.990Z,48.07
2019-02-05T05:38:27.044Z,48.30
2019-02-05T05:41:04.269Z,47.67
2019-02-05T05:43:33.795Z,47.23
2019-02-05T05:46:02.749Z,50.30
2019-02-05T05:48:31.601Z,48.13
2019-02-05T05:51:00.194Z,49.13
2019-02-05T05:53:29.003Z,48.60
2019-02-05T05:55:59.173Z,46.80
2019-02-05T05:58:27.939Z,48.80
2019-02-05T06:00:56.907Z,46.20
2019-02-05T06:03:25.623Z,46.13
2019-02-05T06:05:55.666Z,48.83
2019-02-05T06:08:27.892Z,49.17
2019-02-05T06:10:56.877Z,50.50
2019-02-05T06:13:25.901Z,49.13
2019-02-05T06:15:54.861Z,49.53
2019-02-05T06:18:23.827Z,50.30
2019-02-05T06:20:53.060Z,49.97
2019-02-05T06:23:22.000Z,47.60
2019-02-05T06:25:58.970Z,49.17
2019-02-05T06:28:34.799Z,51.63
2019-02-05T06:31:21.264Z,49.80
2019-02-05T06:33:49.332Z,49.43
2019-02-05T06:36:18.141Z,49.87
2019-02-05T06:38:50.442Z,52.43
2019-02-05T06:41:22.094Z,53.40
2019-02-05T06:43:59.904Z,53.10
2019-02-05T06:46:29.907Z,50.30
2019-02-05T06:48:58.692Z,53.03
2019-02-05T06:51:52.058Z,54.23
2019-02-05T06:57:36.956Z,51.20
2019-02-05T07:00:14.205Z,51.93
2019-02-05T07:07:13.441Z,53.93
2019-02-05T07:10:16.445Z,50.77
2019-02-05T07:12:53.815Z,52.37
2019-02-05T07:15:22.973Z,52.40
2019-02-05T07:17:51.544Z,52.97
2019-02-05T07:20:20.280Z,52.33
2019-02-05T07:22:51.568Z,55.50
2019-02-05T07:25:20.340Z,52.87
2019-02-05T07:27:48.936Z,51.70
2019-02-05T07:30:18.959Z,53.40
2019-02-05T07:32:47.607Z,49.93
2019-02-05T07:35:16.351Z,51.93
2019-02-05T07:37:45.094Z,52.63
2019-02-05T07:40:14.380Z,53.37
2019-02-05T07:42:44.602Z,53.30
2019-02-05T07:45:14.529Z,51.90
2019-02-05T07:47:43.422Z,51.37
2019-02-05T07:50:16.313Z,51.80
2019-02-05T07:52:44.956Z,49.27
2019-02-05T07:55:13.545Z,50.87
2019-02-05T07:57:42.553Z,50.80
2019-02-05T08:00:15.886Z,53.53
2019-02-05T08:02:44.568Z,47.97
2019-02-05T08:05:17.019Z,46.30
2019-02-05T08:07:45.662Z,45.40
2019-02-05T08:10:17.165Z,47.80
2019-02-05T08:12:46.276Z,49.17
2019-02-05T08:15:15.725Z,46.43
2019-02-05T08:17:44.611Z,45.70
2019-02-05T08:20:16.457Z,44.23
2019-02-05T08:22:45.552Z,47.27
2019-02-05T08:25:19.771Z,45.93
2019-02-05T08:27:59.711Z,47.50
2019-02-05T08:33:09.336Z,44.13
2019-02-05T15:10:26.295Z,40.10
2019-02-05T15:13:07.029Z,36.50
2019-02-05T15:15:41.214Z,37.07
2019-02-05T15:21:57.218Z,38.13
2019-02-05T15:38:21.201Z,37.03
2019-02-05T15:47:28.413Z,37.10
2019-02-05T16:08:38.550Z,35.13
2019-02-05T16:33:02.959Z,37.70
2019-02-05T16:35:35.023Z,37.93
2019-02-05T16:38:03.833Z,39.90
2019-02-05T16:40:37.907Z,38.13
2019-02-05T16:43:09.635Z,38.30
2019-02-05T16:45:41.871Z,39.50
2019-02-05T16:48:12.028Z,40.50
2019-02-05T16:50:42.523Z,38.63
2019-02-05T16:53:13.484Z,40.63
2019-02-05T16:55:42.913Z,40.10
2019-02-05T16:58:13.393Z,41.20
2019-02-05T17:00:50.898Z,40.47
2019-02-05T17:03:16.478Z,37.80
2019-02-05T17:05:47.894Z,38.77
2019-02-05T17:08:18.915Z,40.30
2019-02-05T17:10:47.856Z,41.90
2019-02-05T17:13:17.179Z,39.00
2019-02-05T17:15:49.040Z,38.37
2019-02-05T17:18:23.563Z,38.33
2019-02-05T17:20:48.572Z,36.13
2019-02-05T17:23:17.667Z,36.57
2019-02-05T17:25:53.796Z,36.90
2019-02-05T17:28:24.881Z,34.97
2019-02-05T17:30:53.965Z,34.40
2019-02-05T17:33:23.056Z,33.53
2019-02-05T17:35:54.698Z,34.53
2019-02-05T17:38:25.646Z,31.67
2019-02-05T17:40:56.599Z,32.60
2019-02-05T17:44:04.103Z,32.90
2019-02-05T19:22:17.975Z,32.77
2019-02-05T19:25:10.418Z,33.30
2019-02-05T19:27:40.286Z,31.73
2019-02-05T19:33:26.413Z,32.67
2019-02-05T19:36:15.794Z,30.43
2019-02-05T19:38:47.972Z,27.97
2019-02-05T19:41:24.601Z,28.40
2019-02-05T19:43:59.431Z,29.80
2019-02-05T19:47:02.906Z,26.60
2019-02-05T19:49:34.073Z,26.37
2019-02-05T21:41:31.274Z,15.27
2019-02-05T21:58:03.904Z,15.40
2019-02-05T22:00:37.555Z,16.33
2019-02-05T22:03:17.598Z,17.07
2019-02-05T22:06:02.426Z,16.97
2019-02-05T22:08:39.997Z,16.07
2019-02-05T22:11:25.893Z,15.50
2019-02-05T22:14:07.441Z,16.13
2019-02-05T22:16:42.078Z,14.40
2019-02-05T22:19:14.926Z,13.87
2019-02-05T22:21:44.078Z,14.37
2019-02-05T22:24:12.946Z,11.73
2019-02-05T22:26:44.696Z,13.07
2019-02-05T22:29:13.589Z,12.10
2019-02-05T22:31:42.497Z,12.23
2019-02-05T22:34:11.718Z,12.27
2019-02-05T22:36:42.430Z,11.40
2019-02-05T22:39:13.690Z,10.97
2019-02-05T22:41:42.613Z,11.70
2019-02-05T22:44:11.523Z,10.33
2019-02-05T22:46:42.346Z,11.07
2019-02-05T22:49:11.233Z,11.77
2019-02-05T22:51:43.279Z,10.80
2019-02-05T22:54:12.038Z,11.03
2019-02-05T22:56:40.966Z,11.80
2019-02-05T22:59:09.970Z,10.97
2019-02-05T23:01:46.961Z,10.93
2019-02-05T23:04:50.481Z,11.37
2019-02-05T23:07:14.952Z,11.50
2019-02-05T23:09:51.698Z,11.70
2019-02-05T23:12:39.728Z,12.10
2019-02-05T23:15:13.444Z,10.80
2019-02-05T23:17:42.839Z,11.33
2019-02-05T23:20:13.342Z,11.63
2019-02-05T23:22:42.238Z,11.67
2019-02-05T23:25:11.126Z,11.30
2019-02-05T23:27:42.553Z,11.67
2019-02-05T23:30:12.689Z,11.63
2019-02-05T23:32:41.475Z,11.97
2019-02-05T23:35:10.228Z,11.87
2019-02-05T23:37:57.812Z,11.60
2019-02-05T23:40:26.702Z,12.73
2019-02-05T23:43:00.038Z,11.67
2019-02-05T23:45:28.885Z,12.53
2019-02-05T23:48:00.544Z,12.33
2019-02-05T23:50:29.861Z,12.13
2019-02-05T23:52:58.883Z,12.23
2019-02-05T23:56:23.992Z,13.53
2019-02-05T23:58:54.583Z,12.40
